Time;durP1;ratioP1;P1;durP2;ratioP2;P2;SDS_P1;SDS_P2;PMS_P1;PMS_P2;Temp;Humidity;BMP_temperature;BMP_pressure;BME280_temperature;BME280_humidity;BME280_pressure;Samples;Min_cycle;Max_cycle;Signal;HPM_P1;HPM_P2
2023/04/22 00:00:27;;;;;;;;;;;;;;;8.54;66.38;100771.47;10508961;28;19924;-79
2023/04/22 00:05:29;;;;;;;;;;;;;;;8.58;66.97;100775.31;10531847;28;19924;-79
2023/04/22 00:10:31;;;;;;;;;;;;;;;8.87;66.23;100774.94;10554253;28;19924;-82
2023/04/22 00:15:33;;;;;;;;;;;;;;;8.72;65.64;100773.75;10562009;28;20372;-81
2023/04/22 00:20:35;;;;;;;;;;;;;;;8.62;65.90;100775.59;10537643;28;20023;-82
2023/04/22 00:25:37;;;;;;;;;;;;;;;8.80;66.31;100769.69;10559106;28;19928;-81
2023/04/22 00:30:39;;;;;;;;;;;;;;;9.02;65.38;100784.03;10532415;28;19924;-82
2023/04/22 00:35:41;;;;;;;;;;;;;;;8.76;65.76;100774.88;10515172;28;19925;-80
2023/04/22 00:40:43;;;;;;;;;;;;;;;8.77;66.01;100771.03;10515438;28;20028;-81
2023/04/22 00:45:45;;;;;;;;;;;;;;;8.72;65.45;100773.75;10515502;28;20023;-82
2023/04/22 00:50:47;;;;;;;;;;;;;;;8.54;66.07;100763.25;10515791;28;19970;-81
2023/04/22 00:55:49;;;;;;;;;;;;;;;8.52;66.55;100762.72;10523728;28;20299;-80
2023/04/22 01:00:51;;;;;;;;;;;;;;;8.66;66.44;100760.31;10554864;28;19924;-79
2023/04/22 01:05:53;;;;;;;;;;;;;;;8.61;65.67;100758.38;10552803;28;19924;-80
2023/04/22 01:10:56;;;;;;;;;;;;;;;8.64;65.22;100746.06;10537232;28;19923;-81
2023/04/22 01:15:58;;;;;;;;;;;;;;;8.54;66.42;100744.13;10559234;28;19947;-78
2023/04/22 01:21:01;;;;;;;;;;;;;;;8.53;66.54;100749.84;10551936;28;19947;-80
2023/04/22 01:26:03;;;;;;;;;;;;;;;8.53;66.21;100745.22;10528432;28;19923;-80
2023/04/22 01:31:05;;;;;;;;;;;;;;;8.37;66.45;100736.09;10527445;28;19951;-80
2023/04/22 01:36:07;;;;;;;;;;;;;;;8.39;66.36;100730.34;10537539;28;19924;-79
2023/04/22 01:41:09;;;;;;;;;;;;;;;8.41;65.76;100715.31;10530109;28;19928;-79
2023/04/22 01:46:11;;;;;;;;;;;;;;;8.54;65.30;100730.44;10503307;28;19924;-78
2023/04/22 01:51:13;;;;;;;;;;;;;;;8.52;65.04;100721.69;10555268;28;19924;-82
2023/04/22 01:56:14;;;;;;;;;;;;;;;8.42;65.97;100722.44;10540450;28;19965;-82
2023/04/22 02:01:16;;;;;;;;;;;;;;;8.31;66.43;100720.69;10519403;28;19932;-79
2023/04/22 02:06:18;;;;;;;;;;;;;;;8.14;66.70;100720.03;10543517;28;19930;-81
2023/04/22 02:11:20;;;;;;;;;;;;;;;8.16;66.59;100720.63;10549406;28;20013;-82
2023/04/22 02:16:25;;;;;;;;;;;;;;;8.21;65.71;100717.09;10566856;28;20291;-81
2023/04/22 02:21:27;;;;;;;;;;;;;;;8.31;65.59;100715.22;10567989;28;19932;-82
2023/04/22 02:26:29;;;;;;;;;;;;;;;8.31;66.16;100719.88;10547090;28;19924;-80
2023/04/22 02:31:32;;;;;;;;;;;;;;;8.11;65.99;100726.84;10540800;28;19923;-81
2023/04/22 02:36:34;;;;;;;;;;;;;;;8.15;66.59;100725.22;10522002;28;20538;-82
2023/04/22 02:41:36;;;;;;;;;;;;;;;8.09;66.92;100718.09;10550502;28;19920;-82
2023/04/22 02:46:38;;;;;;;;;;;;;;;8.29;66.46;100720.13;10536134;28;19924;-80
2023/04/22 02:51:40;;;;;;;;;;;;;;;8.40;65.16;100707.38;10551094;28;20376;-80
2023/04/22 02:56:42;;;;;;;;;;;;;;;8.27;65.62;100710.56;10515624;28;19931;-80
2023/04/22 03:01:44;;;;;;;;;;;;;;;8.07;66.89;100712.06;10529186;28;20019;-80
2023/04/22 03:06:55;;;;;;;;;;;;;;;8.33;66.33;100718.53;10514986;28;19924;-80
2023/04/22 03:11:56;;;;;;;;;;;;;;;8.45;65.48;100705.50;10542518;28;19924;-79
2023/04/22 03:16:58;;;;;;;;;;;;;;;8.21;65.75;100717.91;10539496;28;19924;-82
2023/04/22 03:22:01;;;;;;;;;;;;;;;8.04;66.26;100715.34;10513577;28;19931;-81
2023/04/22 03:27:03;;;;;;;;;;;;;;;7.82;67.09;100723.66;10539553;28;19946;-82
2023/04/22 03:32:05;;;;;;;;;;;;;;;7.73;68.21;100725.19;10526537;28;19928;-82
2023/04/22 03:37:08;;;;;;;;;;;;;;;7.73;68.11;100717.00;10499777;28;20004;-82
2023/04/22 03:42:11;;;;;;;;;;;;;;;8.02;67.54;100714.78;10512682;28;19920;-80
2023/04/22 03:47:17;;;;;;;;;;;;;;;8.43;66.45;100710.41;10519391;28;19927;-80
2023/04/22 03:52:24;;;;;;;;;;;;;;;8.65;66.33;100707.50;10493406;28;19925;-81
2023/04/22 03:57:33;;;;;;;;;;;;;;;9.07;64.73;100701.09;10517739;28;19931;-79
2023/04/22 04:02:35;;;;;;;;;;;;;;;8.94;65.07;100704.34;10528108;28;19923;-80
2023/04/22 04:07:38;;;;;;;;;;;;;;;9.08;63.83;100700.00;10529817;28;19931;-79
2023/04/22 04:12:41;;;;;;;;;;;;;;;9.91;62.41;100695.16;10538757;28;19924;-81
2023/04/22 04:17:44;;;;;;;;;;;;;;;10.73;59.44;100697.72;10551071;28;19930;-79
2023/04/22 04:22:47;;;;;;;;;;;;;;;11.40;57.65;100701.75;10554619;28;21220;-80
2023/04/22 04:27:50;;;;;;;;;;;;;;;11.80;56.11;100697.09;10564125;28;19924;-81
2023/04/22 04:32:53;;;;;;;;;;;;;;;12.18;54.71;100701.72;10499947;28;20319;-80
2023/04/22 04:37:55;;;;;;;;;;;;;;;12.49;54.31;100688.44;10515591;28;19936;-79
2023/04/22 04:43:01;;;;;;;;;;;;;;;13.05;52.82;100684.19;10544730;28;19927;-80
2023/04/22 04:48:07;;;;;;;;;;;;;;;13.63;51.44;100684.69;10555000;28;19924;-83
2023/04/22 04:53:12;;;;;;;;;;;;;;;13.70;50.56;100679.59;10556770;28;19924;-82
2023/04/22 04:58:17;;;;;;;;;;;;;;;13.90;50.36;100674.91;10530268;28;19924;-80
2023/04/22 05:03:23;;;;;;;;;;;;;;;14.28;49.23;100673.63;10486850;28;19928;-80
2023/04/22 05:08:25;;;;;;;;;;;;;;;14.61;48.26;100676.34;10552475;28;19924;-84
2023/04/22 05:13:32;;;;;;;;;;;;;;;15.13;47.19;100669.41;10533602;28;20292;-83
2023/04/22 05:18:34;;;;;;;;;;;;;;;15.33;47.08;100671.72;10534844;28;19931;-83
2023/04/22 05:23:41;;;;;;;;;;;;;;;15.62;46.35;100670.53;10523892;28;20306;-86
2023/04/22 05:28:43;;;;;;;;;;;;;;;15.37;46.05;100666.38;10530995;28;19924;-80
2023/04/22 05:33:45;;;;;;;;;;;;;;;15.59;46.26;100674.72;10547762;28;20055;-83
2023/04/22 05:38:47;;;;;;;;;;;;;;;16.10;45.03;100667.06;10539405;28;19924;-81
2023/04/22 05:43:50;;;;;;;;;;;;;;;16.46;44.16;100662.19;10567765;28;19924;-83
2023/04/22 05:48:55;;;;;;;;;;;;;;;16.45;44.20;100666.09;10527346;28;20509;-84
2023/04/22 05:54:28;;;;;;;;;;;;;;;16.41;44.09;100656.78;10470958;28;20406;-83
2023/04/22 05:59:30;;;;;;;;;;;;;;;16.37;43.91;100653.03;10559737;28;20027;-85
2023/04/22 06:04:33;;;;;;;;;;;;;;;16.70;42.99;100649.94;10515229;28;20346;-83
2023/04/22 06:09:35;;;;;;;;;;;;;;;16.68;42.80;100650.25;10536852;28;20002;-84
2023/04/22 06:14:37;;;;;;;;;;;;;;;16.92;41.79;100649.81;10552672;28;19923;-82
2023/04/22 06:19:39;;;;;;;;;;;;;;;16.52;43.09;100652.59;10525934;28;19924;-80
2023/04/22 06:24:41;;;;;;;;;;;;;;;17.34;41.97;100652.94;10511320;28;19924;-83
2023/04/22 06:29:43;;;;;;;;;;;;;;;17.21;41.96;100653.94;10527459;28;19924;-85
2023/04/22 06:34:45;;;;;;;;;;;;;;;17.69;41.42;100643.47;10527504;28;19924;-83
2023/04/22 06:39:47;;;;;;;;;;;;;;;17.96;40.48;100644.25;10503094;28;19931;-79
2023/04/22 06:45:27;;;;;;;;;;;;;;;18.24;40.26;100639.91;10474510;28;19932;-82
2023/04/22 06:50:56;;;;;;;;;;;;;;;18.31;39.60;100636.63;10484075;28;19933;-82
2023/04/22 06:55:58;;;;;;;;;;;;;;;18.60;39.14;100633.88;10468658;28;19925;-81
2023/04/22 07:01:00;;;;;;;;;;;;;;;18.77;39.22;100627.44;10469384;28;19925;-80
2023/04/22 07:06:02;;;;;;;;;;;;;;;18.46;39.05;100629.69;10478576;28;19924;-80
2023/04/22 07:11:05;;;;;;;;;;;;;;;18.87;39.00;100624.22;10493056;28;19924;-81
2023/04/22 07:16:27;;;;;;;;;;;;;;;19.36;38.47;100618.16;10538875;28;20010;-84
2023/04/22 07:21:30;;;;;;;;;;;;;;;19.38;38.07;100616.66;10550820;28;19919;-81
2023/04/22 07:26:33;;;;;;;;;;;;;;;19.37;37.85;100619.78;10551586;28;19927;-80
2023/04/22 07:31:35;;;;;;;;;;;;;;;19.09;37.57;100617.56;10568721;28;19931;-79
2023/04/22 07:36:37;;;;;;;;;;;;;;;19.25;38.06;100606.59;10534051;28;19924;-81
2023/04/22 07:41:39;;;;;;;;;;;;;;;19.87;37.19;100608.50;10524935;28;19931;-83
2023/04/22 07:46:41;;;;;;;;;;;;;;;20.24;36.84;100608.56;10508810;28;19928;-82
2023/04/22 07:51:44;;;;;;;;;;;;;;;20.14;37.28;100613.44;10526484;28;19931;-82
2023/04/22 07:56:45;;;;;;;;;;;;;;;20.61;36.17;100614.97;10543227;28;20461;-81
2023/04/22 08:01:47;;;;;;;;;;;;;;;20.45;36.02;100603.72;10568390;28;19938;-78
2023/04/22 08:06:49;;;;;;;;;;;;;;;20.31;36.54;100615.19;10550162;28;19931;-80
2023/04/22 08:11:52;;;;;;;;;;;;;;;20.21;36.63;100612.03;10535372;28;19994;-79
2023/04/22 08:16:54;;;;;;;;;;;;;;;20.37;36.93;100613.81;10509160;28;19924;-83
2023/04/22 08:21:56;;;;;;;;;;;;;;;;;;10526294;28;19924;-79
2023/04/22 08:26:58;;;;;;;;;;;;;;;19.86;36.33;100615.22;10526165;28;19931;-79
2023/04/22 08:32:02;;;;;;;;;;;;;;;20.28;36.46;100615.06;10508403;28;20035;-79
2023/04/22 08:37:04;;;;;;;;;;;;;;;20.68;35.81;100615.22;10491575;28;20300;-82
2023/04/22 08:42:07;;;;;;;;;;;;;;;20.56;35.79;100609.66;10525866;28;20082;-79
2023/04/22 08:47:10;;;;;;;;;;;;;;;20.30;35.19;100602.41;10507645;28;19927;-81
2023/04/22 08:52:14;;;;;;;;;;;;;;;19.94;36.17;100605.94;10508154;28;19925;-82
2023/04/22 08:57:16;;;;;;;;;;;;;;;19.94;35.66;100614.31;10498300;28;19936;-82
2023/04/22 09:02:19;;;;;;;;;;;;;;;20.01;36.04;100605.41;10546538;28;19935;-81
2023/04/22 09:07:26;;;;;;;;;;;;;;;19.65;36.30;100606.13;10555944;28;20294;-82
2023/04/22 09:12:28;;;;;;;;;;;;;;;19.81;35.99;100602.34;10485075;28;19925;-83
2023/04/22 09:17:30;;;;;;;;;;;;;;;19.56;36.19;100601.44;10532555;28;19924;-82
2023/04/22 09:22:43;;;;;;;;;;;;;;;18.47;37.82;100597.97;10514437;28;19932;-83
2023/04/22 09:27:49;;;;;;;;;;;;;;;17.68;38.96;100591.88;10498438;28;19925;-80
2023/04/22 09:32:55;;;;;;;;;;;;;;;17.14;40.02;100596.97;10532329;28;19932;-84
2023/04/22 09:37:57;;;;;;;;;;;;;;;16.58;40.86;100589.56;10513425;28;19936;-83
2023/04/22 09:43:04;;;;;;;;;;;;;;;16.42;40.75;100580.06;10512993;28;19955;-81
2023/04/22 09:48:10;;;;;;;;;;;;;;;16.27;41.26;100578.53;10512968;28;19924;-81
2023/04/22 09:53:13;;;;;;;;;;;;;;;16.23;40.52;100577.56;10513202;28;19931;-84
2023/04/22 09:58:16;;;;;;;;;;;;;;;16.10;41.00;100572.94;10512118;28;19948;-82
2023/04/22 10:03:18;;;;;;;;;;;;;;;16.13;41.03;100570.34;10511342;28;19924;-84
2023/04/22 10:08:20;;;;;;;;;;;;;;;16.12;40.73;100565.13;10553344;28;19948;-82
2023/04/22 10:13:22;;;;;;;;;;;;;;;15.85;40.81;100560.63;10572312;28;19924;-80
2023/04/22 10:18:24;;;;;;;;;;;;;;;15.77;40.87;100561.41;10554098;28;20026;-80
2023/04/22 10:23:28;;;;;;;;;;;;;;;15.80;41.17;100558.03;10553339;28;19927;-80
2023/04/22 10:28:30;;;;;;;;;;;;;;;15.83;41.71;100554.59;10537265;28;19931;-80
2023/04/22 10:33:33;;;;;;;;;;;;;;;15.80;41.50;100556.06;10552943;28;19931;-82
2023/04/22 10:38:36;;;;;;;;;;;;;;;15.73;42.05;100541.84;10536376;28;19931;-82
2023/04/22 10:43:45;;;;;;;;;;;;;;;15.85;41.62;100547.63;10553193;28;19924;-81
2023/04/22 10:48:48;;;;;;;;;;;;;;;15.87;41.51;100544.53;10553356;28;19934;-80
2023/04/22 10:53:50;;;;;;;;;;;;;;;15.81;41.45;100537.50;10535689;28;19924;-82
2023/04/22 10:58:52;;;;;;;;;;;;;;;15.86;41.44;100545.66;10566431;28;20026;-83
2023/04/22 11:03:54;;;;;;;;;;;;;;;15.64;42.04;100538.25;10511132;28;19924;-80
2023/04/22 11:09:07;;;;;;;;;;;;;;;15.65;41.94;100545.41;10510950;28;19925;-81
2023/04/22 11:14:09;;;;;;;;;;;;;;;15.67;41.96;100532.06;10497432;28;19924;-80
2023/04/22 11:19:11;;;;;;;;;;;;;;;15.47;42.41;100521.53;10570553;28;20008;-82
2023/04/22 11:24:15;;;;;;;;;;;;;;;15.68;42.78;100530.94;10518400;28;19924;-81
2023/04/22 11:29:17;;;;;;;;;;;;;;;15.65;43.35;100528.81;10552008;28;19924;-81
2023/04/22 11:34:19;;;;;;;;;;;;;;;15.84;42.75;100523.84;10569385;28;19934;-80
2023/04/22 11:39:21;;;;;;;;;;;;;;;15.81;43.29;100520.91;10551532;28;19924;-82
2023/04/22 11:44:24;;;;;;;;;;;;;;;15.74;43.48;100521.34;10568941;28;20010;-81
2023/04/22 11:49:26;;;;;;;;;;;;;;;15.57;43.64;100504.63;10551754;28;19931;-84
2023/04/22 11:54:29;;;;;;;;;;;;;;;15.63;43.53;100514.47;10568467;28;19928;-82
2023/04/22 11:59:34;;;;;;;;;;;;;;;15.32;43.77;100497.84;10549951;28;19931;-81
2023/04/22 12:04:37;;;;;;;;;;;;;;;15.29;43.96;100506.78;10451001;28;19925;-81
2023/04/22 12:09:39;;;;;;;;;;;;;;;15.33;44.03;100499.47;10467274;28;20392;-82
2023/04/22 12:14:44;;;;;;;;;;;;;;;15.22;44.08;100501.69;10467941;28;19939;-80
2023/04/22 12:19:46;;;;;;;;;;;;;;;15.16;43.74;100505.72;10508452;28;19924;-82
2023/04/22 12:24:48;;;;;;;;;;;;;;;15.02;43.92;100494.72;10491476;28;19928;-80
2023/04/22 12:29:52;;;;;;;;;;;;;;;14.92;44.46;100494.16;10497932;28;19962;-82
2023/04/22 12:34:54;;;;;;;;;;;;;;;14.93;44.35;100493.03;10515953;28;19924;-83
2023/04/22 12:39:56;;;;;;;;;;;;;;;15.05;44.29;100494.09;10533549;28;20003;-82
2023/04/22 12:44:58;;;;;;;;;;;;;;;14.93;44.89;100501.34;10499714;28;19978;-81
2023/04/22 12:50:05;;;;;;;;;;;;;;;14.95;44.39;100490.78;10498808;28;19931;-80
2023/04/22 12:55:07;;;;;;;;;;;;;;;14.83;44.73;100491.34;10533519;28;19931;-82
2023/04/22 13:00:13;;;;;;;;;;;;;;;14.64;44.81;100502.56;10513265;28;19928;-83
2023/04/22 13:05:15;;;;;;;;;;;;;;;14.61;44.87;100505.94;10556577;28;19924;-81
2023/04/22 13:10:18;;;;;;;;;;;;;;;14.53;45.05;100509.41;10541057;28;19931;-81
2023/04/22 13:15:21;;;;;;;;;;;;;;;14.39;45.28;100509.41;10556512;28;19939;-82
2023/04/22 13:20:26;;;;;;;;;;;;;;;14.46;44.63;100507.09;10539251;28;19924;-85
2023/04/22 13:25:28;;;;;;;;;;;;;;;14.42;44.96;100503.31;10576329;28;19923;-83
2023/04/22 13:30:30;;;;;;;;;;;;;;;14.37;45.12;100497.06;10562888;28;19920;-81
2023/04/22 13:35:32;;;;;;;;;;;;;;;14.36;44.48;100504.53;10575900;28;20466;-81
2023/04/22 13:40:33;;;;;;;;;;;;;;;14.19;44.95;100505.16;10522059;28;20343;-81
2023/04/22 13:45:35;;;;;;;;;;;;;;;14.03;45.14;100506.59;10526198;28;20291;-82
2023/04/22 13:50:41;;;;;;;;;;;;;;;14.05;45.95;100504.34;10522697;28;19931;-82
2023/04/22 13:55:43;;;;;;;;;;;;;;;13.96;45.69;100497.13;10572310;28;19931;-81
2023/04/22 14:00:45;;;;;;;;;;;;;;;13.92;45.34;100505.19;10549598;28;19931;-80
2023/04/22 14:05:47;;;;;;;;;;;;;;;13.86;45.21;100498.13;10537272;28;19931;-83
2023/04/22 14:10:52;;;;;;;;;;;;;;;13.78;46.10;100498.84;10571370;28;19950;-80
2023/04/22 14:15:54;;;;;;;;;;;;;;;13.65;45.69;100500.47;10551853;28;20299;-82
2023/04/22 14:20:56;;;;;;;;;;;;;;;13.61;45.88;100499.44;10542258;28;19924;-81
2023/04/22 14:25:58;;;;;;;;;;;;;;;13.62;45.88;100495.56;10571769;28;20330;-80
2023/04/22 14:31:00;;;;;;;;;;;;;;;13.61;46.51;100498.63;10537262;28;19971;-81
2023/04/22 14:36:10;;;;;;;;;;;;;;;13.56;46.15;100502.31;10551103;28;19931;-80
2023/04/22 14:41:12;;;;;;;;;;;;;;;13.62;46.70;100501.09;10538439;28;19931;-80
2023/04/22 14:46:16;;;;;;;;;;;;;;;13.67;46.47;100505.69;10555000;28;19927;-81
2023/04/22 14:51:18;;;;;;;;;;;;;;;13.63;46.18;100502.72;10549199;28;20295;-81
2023/04/22 14:56:20;;;;;;;;;;;;;;;13.52;46.32;100496.56;10515346;28;19924;-79
2023/04/22 15:01:22;;;;;;;;;;;;;;;13.44;47.15;100493.72;10568165;28;19920;-81
2023/04/22 15:06:24;;;;;;;;;;;;;;;13.31;46.81;100494.50;10543064;28;19931;-81
2023/04/22 15:11:26;;;;;;;;;;;;;;;13.24;47.22;100497.66;10590612;28;19931;-80
2023/04/22 15:16:28;;;;;;;;;;;;;;;13.20;47.77;100494.69;10592689;28;19930;-82
2023/04/22 15:21:32;;;;;;;;;;;;;;;13.21;47.53;100496.31;10577832;28;20205;-81
2023/04/22 15:26:34;;;;;;;;;;;;;;;13.22;47.33;100497.13;10551376;28;19924;-81
2023/04/22 15:31:36;;;;;;;;;;;;;;;13.05;47.72;100503.19;10550632;28;19931;-79
2023/04/22 15:36:38;;;;;;;;;;;;;;;13.00;47.99;100500.50;10569140;28;19924;-83
2023/04/22 15:41:42;;;;;;;;;;;;;;;12.97;48.12;100504.66;10548530;28;19929;-80
2023/04/22 15:46:46;;;;;;;;;;;;;;;12.90;48.58;100495.97;10525419;28;20299;-79
2023/04/22 15:51:48;;;;;;;;;;;;;;;12.79;48.89;100493.69;10573717;28;19924;-80
2023/04/22 15:56:50;;;;;;;;;;;;;;;12.87;48.40;100487.50;10562404;28;19952;-82
2023/04/22 16:01:52;;;;;;;;;;;;;;;12.74;48.98;100488.25;10567831;28;20326;-82
2023/04/22 16:06:56;;;;;;;;;;;;;;;12.59;48.83;100479.13;10577187;28;19931;-82
2023/04/22 16:11:58;;;;;;;;;;;;;;;12.57;49.66;100483.28;10595027;28;19931;-80
2023/04/22 16:17:01;;;;;;;;;;;;;;;12.43;49.70;100468.63;10548637;28;20307;-86
2023/04/22 16:22:03;;;;;;;;;;;;;;;12.48;49.08;100476.81;10580388;28;19920;-80
2023/04/22 16:27:05;;;;;;;;;;;;;;;12.37;48.84;100474.22;10540309;28;19924;-80
2023/04/22 16:32:07;;;;;;;;;;;;;;;12.20;49.94;100473.09;10557975;28;20384;-80
2023/04/22 16:37:14;;;;;;;;;;;;;;;12.01;49.93;100478.56;10557486;28;20030;-81
2023/04/22 16:42:21;;;;;;;;;;;;;;;11.87;50.23;100475.72;10504048;28;19931;-81
2023/04/22 16:47:23;;;;;;;;;;;;;;;11.75;51.06;100483.50;10534348;28;19947;-82
2023/04/22 16:52:25;;;;;;;;;;;;;;;11.69;51.02;100481.94;10521119;28;19931;-81
2023/04/22 16:57:27;;;;;;;;;;;;;;;11.56;50.95;100486.19;10546595;28;20407;-79
2023/04/22 17:02:29;;;;;;;;;;;;;;;11.42;51.27;100482.50;10579560;28;20389;-82
2023/04/22 17:07:32;;;;;;;;;;;;;;;11.38;52.13;100485.00;10558210;28;19928;-79
2023/04/22 17:12:34;;;;;;;;;;;;;;;11.39;51.70;100483.91;10517130;28;20114;-83
2023/04/22 17:17:36;;;;;;;;;;;;;;;11.44;51.34;100494.81;10545844;28;19924;-80
2023/04/22 17:22:38;;;;;;;;;;;;;;;11.35;51.76;100491.09;10498240;28;19964;-81
2023/04/22 17:27:43;;;;;;;;;;;;;;;11.30;51.37;100493.91;10532093;28;19927;-80
2023/04/22 17:32:45;;;;;;;;;;;;;;;11.24;52.33;100489.53;10514130;28;19920;-81
2023/04/22 17:37:47;;;;;;;;;;;;;;;11.27;52.32;100488.13;10566045;28;19920;-81
2023/04/22 17:42:50;;;;;;;;;;;;;;;11.05;52.83;100483.94;10556815;28;19924;-81
2023/04/22 17:47:52;;;;;;;;;;;;;;;10.92;52.67;100489.28;10556751;28;19931;-80
2023/04/22 17:52:54;;;;;;;;;;;;;;;10.77;53.28;100498.47;10526239;28;19925;-81
2023/04/22 17:57:56;;;;;;;;;;;;;;;10.66;53.36;100503.19;10531586;28;19959;-80
2023/04/22 18:02:58;;;;;;;;;;;;;;;10.61;54.75;100500.50;10531968;28;19924;-79
2023/04/22 18:08:01;;;;;;;;;;;;;;;10.44;54.02;100500.88;10525249;28;19928;-82
2023/04/22 18:13:04;;;;;;;;;;;;;;;10.25;54.56;100500.72;10572533;28;19971;-81
2023/04/22 18:18:06;;;;;;;;;;;;;;;10.23;55.33;100499.34;10548979;28;19958;-81
2023/04/22 18:23:08;;;;;;;;;;;;;;;10.16;55.07;100496.06;10478953;28;19946;-83
2023/04/22 18:28:10;;;;;;;;;;;;;;;10.08;55.95;100500.22;10497435;28;19954;-83
2023/04/22 18:33:12;;;;;;;;;;;;;;;10.01;55.99;100501.59;10536578;28;19930;-81
2023/04/22 18:38:14;;;;;;;;;;;;;;;9.94;56.06;100502.75;10543136;28;19932;-79
2023/04/22 18:43:16;;;;;;;;;;;;;;;9.89;56.61;100501.91;10495711;28;19925;-79
2023/04/22 18:48:19;;;;;;;;;;;;;;;9.78;56.81;100503.91;10511451;28;19931;-79
2023/04/22 18:53:21;;;;;;;;;;;;;;;9.74;57.25;100502.81;10511641;28;19932;-81
2023/04/22 18:58:23;;;;;;;;;;;;;;;9.70;57.21;100504.44;10510811;28;19924;-79
2023/04/22 19:03:25;;;;;;;;;;;;;;;9.82;57.33;100501.41;10528724;28;20404;-80
2023/04/22 19:08:27;;;;;;;;;;;;;;;9.76;56.49;100497.88;10493867;28;19932;-79
2023/04/22 19:13:28;;;;;;;;;;;;;;;9.67;57.56;100496.78;10510656;28;19931;-80
2023/04/22 19:18:31;;;;;;;;;;;;;;;9.63;56.90;100490.22;10509985;28;20355;-80
2023/04/22 19:23:35;;;;;;;;;;;;;;;9.54;57.98;100495.44;10493618;28;19944;-81
2023/04/22 19:28:37;;;;;;;;;;;;;;;9.52;57.26;100491.34;10510298;28;19921;-83
2023/04/22 19:33:39;;;;;;;;;;;;;;;9.44;57.92;100498.22;10493264;28;19924;-80
2023/04/22 19:38:42;;;;;;;;;;;;;;;9.29;58.85;100498.25;10530815;28;20415;-82
2023/04/22 19:43:44;;;;;;;;;;;;;;;9.19;58.73;100499.06;10582434;28;19927;-81
2023/04/22 19:48:47;;;;;;;;;;;;;;;9.11;59.46;100504.28;10535484;28;19961;-80
2023/04/22 19:53:49;;;;;;;;;;;;;;;9.03;59.92;100505.69;10538690;28;19928;-80
2023/04/22 19:58:51;;;;;;;;;;;;;;;8.95;59.63;100500.75;10552340;28;19925;-79
2023/04/22 20:03:53;;;;;;;;;;;;;;;8.88;59.82;100501.03;10524075;28;20307;-79
2023/04/22 20:08:57;;;;;;;;;;;;;;;8.79;60.94;100507.28;10550902;28;19924;-81
2023/04/22 20:13:59;;;;;;;;;;;;;;;8.67;61.09;100515.75;10571333;28;19928;-80
2023/04/22 20:19:04;;;;;;;;;;;;;;;8.62;60.39;100511.09;10540112;28;19924;-81
2023/04/22 20:24:06;;;;;;;;;;;;;;;8.57;61.44;100505.63;10516509;28;20308;-80
2023/04/22 20:29:08;;;;;;;;;;;;;;;8.58;61.12;100501.81;10523183;28;19964;-79
2023/04/22 20:34:10;;;;;;;;;;;;;;;8.70;60.72;100501.56;10525592;28;19931;-81
2023/04/22 20:39:15;;;;;;;;;;;;;;;8.75;60.46;100505.09;10526667;28;19924;-82
2023/04/22 20:44:17;;;;;;;;;;;;;;;8.63;61.22;100499.06;10545538;28;19928;-82
2023/04/22 20:49:19;;;;;;;;;;;;;;;8.73;60.27;100477.22;10547546;28;19924;-84
2023/04/22 20:54:22;;;;;;;;;;;;;;;8.70;60.66;100483.22;10566398;28;19935;-81
2023/04/22 20:59:24;;;;;;;;;;;;;;;8.74;60.66;100481.59;10563029;28;20407;-80
2023/04/22 21:04:26;;;;;;;;;;;;;;;8.74;60.59;100481.59;10564226;28;19932;-81
2023/04/22 21:09:28;;;;;;;;;;;;;;;8.82;60.00;100484.84;10570422;28;19930;-81
2023/04/22 21:14:30;;;;;;;;;;;;;;;8.80;60.13;100490.59;10542002;28;19931;-81
2023/04/22 21:19:32;;;;;;;;;;;;;;;8.76;59.89;100487.59;10512128;28;20372;-84
2023/04/22 21:24:35;;;;;;;;;;;;;;;8.80;60.64;100493.34;10481068;28;20346;-84
2023/04/22 21:29:37;;;;;;;;;;;;;;;8.79;60.22;100490.88;10513731;28;19924;-83
2023/04/22 21:34:39;;;;;;;;;;;;;;;8.77;60.49;100494.72;10528121;28;20303;-84
2023/04/22 21:39:41;;;;;;;;;;;;;;;8.82;60.03;100490.31;10502978;28;19928;-81
2023/04/22 21:44:48;;;;;;;;;;;;;;;8.85;60.26;100496.09;10541075;28;20330;-82
2023/04/22 21:49:50;;;;;;;;;;;;;;;8.83;59.40;100490.06;10509657;28;19924;-84
2023/04/22 21:54:52;;;;;;;;;;;;;;;8.90;59.81;100498.84;10508807;28;19931;-81
2023/04/22 21:59:54;;;;;;;;;;;;;;;8.85;59.58;100492.50;10562534;28;19924;-82
2023/04/22 22:04:56;;;;;;;;;;;;;;;8.79;59.38;100491.69;10516773;28;19939;-80
2023/04/22 22:09:59;;;;;;;;;;;;;;;8.71;58.94;100495.00;10553881;28;20090;-83
2023/04/22 22:15:01;;;;;;;;;;;;;;;8.70;59.48;100493.34;10480272;28;19925;-83
2023/04/22 22:20:05;;;;;;;;;;;;;;;8.74;59.78;100483.50;10534993;28;19924;-82
2023/04/22 22:25:08;;;;;;;;;;;;;;;8.77;59.19;100483.78;10552658;28;19924;-80
2023/04/22 22:30:10;;;;;;;;;;;;;;;8.85;59.14;100474.22;10582133;28;20303;-81
2023/04/22 22:35:12;;;;;;;;;;;;;;;8.83;58.24;100487.31;10576602;28;19931;-82
2023/04/22 22:40:15;;;;;;;;;;;;;;;8.92;58.78;100487.59;10565951;28;19924;-84
2023/04/22 22:45:17;;;;;;;;;;;;;;;9.02;58.33;100490.31;10547728;28;19924;-83
2023/04/22 22:50:19;;;;;;;;;;;;;;;9.09;58.65;100488.16;10577726;28;19924;-82
2023/04/22 22:55:21;;;;;;;;;;;;;;;9.04;58.17;100485.41;10557472;28;20133;-80
2023/04/22 23:00:23;;;;;;;;;;;;;;;9.00;58.73;100492.50;10488617;28;19924;-84
2023/04/22 23:05:26;;;;;;;;;;;;;;;8.92;58.66;100482.13;10533898;28;19924;-81
2023/04/22 23:10:27;;;;;;;;;;;;;;;8.95;58.08;100484.31;10543163;28;19931;-82
2023/04/22 23:15:29;;;;;;;;;;;;;;;9.01;58.83;100481.28;10543809;28;19954;-83
2023/04/22 23:20:31;;;;;;;;;;;;;;;8.94;59.34;100477.22;10580246;28;19930;-81
2023/04/22 23:25:33;;;;;;;;;;;;;;;8.94;59.39;100478.03;10539577;28;19924;-81
2023/04/22 23:30:35;;;;;;;;;;;;;;;9.01;58.47;100477.72;10575182;28;19923;-79
2023/04/22 23:35:38;;;;;;;;;;;;;;;8.98;59.82;100478.28;10565028;28;20306;-82
2023/04/22 23:40:40;;;;;;;;;;;;;;;8.95;60.11;100470.63;10553680;28;19924;-83
2023/04/22 23:45:42;;;;;;;;;;;;;;;8.82;60.03;100468.44;10521279;28;19931;-82
2023/04/22 23:50:44;;;;;;;;;;;;;;;8.81;60.59;100473.09;10542244;28;19960;-79
2023/04/22 23:55:46;;;;;;;;;;;;;;;8.89;60.28;100469.00;10509431;28;19979;-82
